sensor_id;sensor_type;location;lat;lon;timestamp;P1;durP1;ratioP1;P2;durP2;ratioP2
24233;SDS011;12365;43.554;1.388;2022-08-19T00:01:28;5.78;;;2.20;;
24233;SDS011;12365;43.554;1.388;2022-08-19T00:03:55;7.10;;;2.33;;
24233;SDS011;12365;43.554;1.388;2022-08-19T00:06:22;4.35;;;1.92;;
24233;SDS011;12365;43.554;1.388;2022-08-19T00:08:48;6.18;;;2.47;;
24233;SDS011;12365;43.554;1.388;2022-08-19T00:11:13;3.97;;;2.10;;
24233;SDS011;12365;43.554;1.388;2022-08-19T00:13:39;4.00;;;2.10;;
24233;SDS011;12365;43.554;1.388;2022-08-19T00:16:05;4.25;;;2.38;;
24233;SDS011;12365;43.554;1.388;2022-08-19T00:18:32;6.18;;;2.45;;
24233;SDS011;12365;43.554;1.388;2022-08-19T00:20:58;4.53;;;2.20;;
24233;SDS011;12365;43.554;1.388;2022-08-19T00:23:24;5.93;;;2.40;;
24233;SDS011;12365;43.554;1.388;2022-08-19T00:25:50;4.43;;;2.10;;
24233;SDS011;12365;43.554;1.388;2022-08-19T00:28:17;7.07;;;2.33;;
24233;SDS011;12365;43.554;1.388;2022-08-19T00:30:42;3.22;;;2.25;;
24233;SDS011;12365;43.554;1.388;2022-08-19T00:33:08;6.95;;;2.58;;
24233;SDS011;12365;43.554;1.388;2022-08-19T00:35:33;5.45;;;2.40;;
24233;SDS011;12365;43.554;1.388;2022-08-19T00:37:59;4.45;;;2.40;;
24233;SDS011;12365;43.554;1.388;2022-08-19T00:40:24;4.70;;;2.40;;
24233;SDS011;12365;43.554;1.388;2022-08-19T00:42:50;6.35;;;2.70;;
24233;SDS011;12365;43.554;1.388;2022-08-19T00:45:20;6.05;;;2.53;;
24233;SDS011;12365;43.554;1.388;2022-08-19T00:47:47;7.03;;;2.50;;
24233;SDS011;12365;43.554;1.388;2022-08-19T00:50:14;7.47;;;2.65;;
24233;SDS011;12365;43.554;1.388;2022-08-19T00:52:42;7.22;;;2.65;;
24233;SDS011;12365;43.554;1.388;2022-08-19T00:55:10;3.85;;;2.33;;
24233;SDS011;12365;43.554;1.388;2022-08-19T00:57:40;8.63;;;2.80;;
24233;SDS011;12365;43.554;1.388;2022-08-19T01:00:11;5.63;;;2.58;;
24233;SDS011;12365;43.554;1.388;2022-08-19T01:02:39;8.30;;;3.33;;
24233;SDS011;12365;43.554;1.388;2022-08-19T01:05:06;6.07;;;2.72;;
24233;SDS011;12365;43.554;1.388;2022-08-19T01:07:36;5.82;;;2.45;;
24233;SDS011;12365;43.554;1.388;2022-08-19T01:10:05;6.05;;;2.75;;
24233;SDS011;12365;43.554;1.388;2022-08-19T01:12:33;12.90;;;2.85;;
24233;SDS011;12365;43.554;1.388;2022-08-19T01:14:59;5.97;;;2.70;;
24233;SDS011;12365;43.554;1.388;2022-08-19T01:17:25;7.25;;;2.85;;
24233;SDS011;12365;43.554;1.388;2022-08-19T01:19:50;6.88;;;2.83;;
24233;SDS011;12365;43.554;1.388;2022-08-19T01:22:25;7.00;;;2.80;;
24233;SDS011;12365;43.554;1.388;2022-08-19T01:24:55;6.60;;;3.00;;
24233;SDS011;12365;43.554;1.388;2022-08-19T01:27:21;4.40;;;2.55;;
24233;SDS011;12365;43.554;1.388;2022-08-19T01:29:47;6.93;;;2.90;;
24233;SDS011;12365;43.554;1.388;2022-08-19T01:32:13;6.35;;;2.80;;
24233;SDS011;12365;43.554;1.388;2022-08-19T01:34:41;8.68;;;3.13;;
24233;SDS011;12365;43.554;1.388;2022-08-19T01:37:10;8.82;;;2.80;;
24233;SDS011;12365;43.554;1.388;2022-08-19T01:39:37;7.68;;;2.70;;
24233;SDS011;12365;43.554;1.388;2022-08-19T01:42:04;6.75;;;2.78;;
24233;SDS011;12365;43.554;1.388;2022-08-19T01:44:32;6.68;;;3.03;;
24233;SDS011;12365;43.554;1.388;2022-08-19T01:46:57;5.28;;;2.70;;
24233;SDS011;12365;43.554;1.388;2022-08-19T01:49:23;5.30;;;2.42;;
24233;SDS011;12365;43.554;1.388;2022-08-19T01:51:51;8.00;;;3.00;;
24233;SDS011;12365;43.554;1.388;2022-08-19T01:54:19;7.65;;;3.03;;
24233;SDS011;12365;43.554;1.388;2022-08-19T01:56:46;5.15;;;2.70;;
24233;SDS011;12365;43.554;1.388;2022-08-19T01:59:12;7.88;;;2.83;;
24233;SDS011;12365;43.554;1.388;2022-08-19T02:01:41;8.52;;;3.13;;
24233;SDS011;12365;43.554;1.388;2022-08-19T02:04:06;5.78;;;2.75;;
24233;SDS011;12365;43.554;1.388;2022-08-19T02:06:32;7.78;;;2.92;;
24233;SDS011;12365;43.554;1.388;2022-08-19T02:08:58;6.97;;;2.88;;
24233;SDS011;12365;43.554;1.388;2022-08-19T02:11:27;8.13;;;2.90;;
24233;SDS011;12365;43.554;1.388;2022-08-19T02:13:56;9.00;;;2.78;;
24233;SDS011;12365;43.554;1.388;2022-08-19T02:16:22;15.68;;;3.00;;
24233;SDS011;12365;43.554;1.388;2022-08-19T02:18:47;6.55;;;2.97;;
24233;SDS011;12365;43.554;1.388;2022-08-19T02:21:14;5.40;;;2.63;;
24233;SDS011;12365;43.554;1.388;2022-08-19T02:23:40;8.65;;;2.90;;
24233;SDS011;12365;43.554;1.388;2022-08-19T02:26:06;7.35;;;3.00;;
24233;SDS011;12365;43.554;1.388;2022-08-19T02:28:32;6.40;;;2.80;;
24233;SDS011;12365;43.554;1.388;2022-08-19T02:30:58;8.18;;;3.03;;
24233;SDS011;12365;43.554;1.388;2022-08-19T02:33:25;7.10;;;2.75;;
24233;SDS011;12365;43.554;1.388;2022-08-19T02:35:51;9.43;;;2.70;;
24233;SDS011;12365;43.554;1.388;2022-08-19T02:38:16;8.23;;;2.90;;
24233;SDS011;12365;43.554;1.388;2022-08-19T02:40:51;9.63;;;2.90;;
24233;SDS011;12365;43.554;1.388;2022-08-19T02:43:18;8.82;;;3.10;;
24233;SDS011;12365;43.554;1.388;2022-08-19T02:45:48;8.93;;;2.67;;
24233;SDS011;12365;43.554;1.388;2022-08-19T02:48:17;7.03;;;3.00;;
24233;SDS011;12365;43.554;1.388;2022-08-19T02:50:44;6.72;;;2.80;;
24233;SDS011;12365;43.554;1.388;2022-08-19T02:53:10;6.68;;;2.72;;
24233;SDS011;12365;43.554;1.388;2022-08-19T02:55:36;6.97;;;3.10;;
24233;SDS011;12365;43.554;1.388;2022-08-19T02:58:08;6.47;;;2.70;;
24233;SDS011;12365;43.554;1.388;2022-08-19T03:00:34;10.85;;;3.30;;
24233;SDS011;12365;43.554;1.388;2022-08-19T03:02:59;5.68;;;2.63;;
24233;SDS011;12365;43.554;1.388;2022-08-19T03:05:25;8.20;;;2.55;;
24233;SDS011;12365;43.554;1.388;2022-08-19T03:07:51;6.78;;;2.83;;
24233;SDS011;12365;43.554;1.388;2022-08-19T03:10:17;8.88;;;2.80;;
24233;SDS011;12365;43.554;1.388;2022-08-19T03:12:43;7.25;;;2.78;;
24233;SDS011;12365;43.554;1.388;2022-08-19T03:15:08;7.35;;;2.70;;
24233;SDS011;12365;43.554;1.388;2022-08-19T03:17:34;6.70;;;2.58;;
24233;SDS011;12365;43.554;1.388;2022-08-19T03:20:00;8.52;;;2.88;;
24233;SDS011;12365;43.554;1.388;2022-08-19T03:22:25;6.63;;;2.90;;
24233;SDS011;12365;43.554;1.388;2022-08-19T03:24:51;8.05;;;2.60;;
24233;SDS011;12365;43.554;1.388;2022-08-19T03:27:18;6.07;;;2.58;;
24233;SDS011;12365;43.554;1.388;2022-08-19T03:29:43;8.07;;;2.47;;
24233;SDS011;12365;43.554;1.388;2022-08-19T03:32:09;8.30;;;2.60;;
24233;SDS011;12365;43.554;1.388;2022-08-19T03:34:36;11.73;;;2.53;;
24233;SDS011;12365;43.554;1.388;2022-08-19T03:37:04;6.32;;;2.50;;
24233;SDS011;12365;43.554;1.388;2022-08-19T03:39:31;8.13;;;2.67;;
24233;SDS011;12365;43.554;1.388;2022-08-19T03:41:56;6.05;;;2.53;;
24233;SDS011;12365;43.554;1.388;2022-08-19T03:44:24;8.52;;;2.85;;
24233;SDS011;12365;43.554;1.388;2022-08-19T03:46:51;8.00;;;2.80;;
24233;SDS011;12365;43.554;1.388;2022-08-19T03:49:20;6.88;;;2.33;;
24233;SDS011;12365;43.554;1.388;2022-08-19T03:51:47;6.03;;;2.50;;
24233;SDS011;12365;43.554;1.388;2022-08-19T03:54:14;6.10;;;2.50;;
24233;SDS011;12365;43.554;1.388;2022-08-19T03:56:42;7.03;;;2.45;;
24233;SDS011;12365;43.554;1.388;2022-08-19T03:59:13;6.25;;;2.50;;
24233;SDS011;12365;43.554;1.388;2022-08-19T04:01:41;6.30;;;2.53;;
24233;SDS011;12365;43.554;1.388;2022-08-19T04:04:06;4.97;;;2.55;;
24233;SDS011;12365;43.554;1.388;2022-08-19T04:06:34;7.78;;;2.60;;
24233;SDS011;12365;43.554;1.388;2022-08-19T04:09:02;8.82;;;2.58;;
24233;SDS011;12365;43.554;1.388;2022-08-19T04:11:33;6.50;;;2.20;;
24233;SDS011;12365;43.554;1.388;2022-08-19T04:14:03;7.93;;;2.60;;
24233;SDS011;12365;43.554;1.388;2022-08-19T04:16:29;8.40;;;2.30;;
24233;SDS011;12365;43.554;1.388;2022-08-19T04:18:55;8.02;;;2.50;;
24233;SDS011;12365;43.554;1.388;2022-08-19T04:21:25;7.18;;;2.40;;
24233;SDS011;12365;43.554;1.388;2022-08-19T04:23:52;6.03;;;2.40;;
24233;SDS011;12365;43.554;1.388;2022-08-19T04:26:19;7.85;;;2.50;;
24233;SDS011;12365;43.554;1.388;2022-08-19T04:28:47;7.28;;;2.50;;
24233;SDS011;12365;43.554;1.388;2022-08-19T04:31:21;8.18;;;2.40;;
24233;SDS011;12365;43.554;1.388;2022-08-19T04:33:51;7.65;;;2.60;;
24233;SDS011;12365;43.554;1.388;2022-08-19T04:36:22;4.68;;;2.47;;
24233;SDS011;12365;43.554;1.388;2022-08-19T04:38:53;5.75;;;2.47;;
24233;SDS011;12365;43.554;1.388;2022-08-19T04:41:20;6.93;;;2.30;;
24233;SDS011;12365;43.554;1.388;2022-08-19T04:44:04;9.85;;;2.70;;
24233;SDS011;12365;43.554;1.388;2022-08-19T04:46:30;6.43;;;2.40;;
24233;SDS011;12365;43.554;1.388;2022-08-19T04:48:57;5.25;;;2.22;;
24233;SDS011;12365;43.554;1.388;2022-08-19T04:51:27;6.45;;;2.40;;
24233;SDS011;12365;43.554;1.388;2022-08-19T04:53:55;9.60;;;2.78;;
24233;SDS011;12365;43.554;1.388;2022-08-19T04:56:21;4.10;;;2.33;;
24233;SDS011;12365;43.554;1.388;2022-08-19T04:58:47;4.80;;;2.40;;
24233;SDS011;12365;43.554;1.388;2022-08-19T05:01:19;9.20;;;2.78;;
24233;SDS011;12365;43.554;1.388;2022-08-19T05:03:48;8.32;;;2.80;;
24233;SDS011;12365;43.554;1.388;2022-08-19T05:06:15;6.93;;;2.50;;
24233;SDS011;12365;43.554;1.388;2022-08-19T05:08:43;11.23;;;2.80;;
24233;SDS011;12365;43.554;1.388;2022-08-19T05:11:16;11.80;;;2.88;;
24233;SDS011;12365;43.554;1.388;2022-08-19T05:13:43;8.80;;;2.65;;
24233;SDS011;12365;43.554;1.388;2022-08-19T05:16:10;5.70;;;2.40;;
24233;SDS011;12365;43.554;1.388;2022-08-19T05:18:36;8.18;;;2.72;;
24233;SDS011;12365;43.554;1.388;2022-08-19T05:21:21;9.80;;;2.83;;
24233;SDS011;12365;43.554;1.388;2022-08-19T05:24:05;4.63;;;2.38;;
24233;SDS011;12365;43.554;1.388;2022-08-19T05:26:37;7.75;;;2.58;;
24233;SDS011;12365;43.554;1.388;2022-08-19T05:29:04;15.18;;;2.33;;
24233;SDS011;12365;43.554;1.388;2022-08-19T05:31:32;9.20;;;2.42;;
24233;SDS011;12365;43.554;1.388;2022-08-19T05:33:58;9.00;;;2.70;;
24233;SDS011;12365;43.554;1.388;2022-08-19T05:36:27;13.43;;;2.90;;
24233;SDS011;12365;43.554;1.388;2022-08-19T05:38:54;5.77;;;2.47;;
24233;SDS011;12365;43.554;1.388;2022-08-19T05:41:20;5.57;;;2.63;;
24233;SDS011;12365;43.554;1.388;2022-08-19T05:43:48;10.27;;;2.75;;
24233;SDS011;12365;43.554;1.388;2022-08-19T05:46:18;7.53;;;2.70;;
24233;SDS011;12365;43.554;1.388;2022-08-19T05:48:44;7.95;;;2.47;;
24233;SDS011;12365;43.554;1.388;2022-08-19T05:51:10;11.95;;;2.90;;
24233;SDS011;12365;43.554;1.388;2022-08-19T05:53:36;7.88;;;2.75;;
24233;SDS011;12365;43.554;1.388;2022-08-19T05:56:09;6.60;;;2.58;;
24233;SDS011;12365;43.554;1.388;2022-08-19T05:58:37;10.02;;;2.90;;
24233;SDS011;12365;43.554;1.388;2022-08-19T06:01:03;9.82;;;2.75;;
24233;SDS011;12365;43.554;1.388;2022-08-19T06:03:40;5.53;;;2.55;;
24233;SDS011;12365;43.554;1.388;2022-08-19T06:06:06;7.32;;;3.00;;
24233;SDS011;12365;43.554;1.388;2022-08-19T06:08:34;8.52;;;2.95;;
24233;SDS011;12365;43.554;1.388;2022-08-19T06:13:51;4.90;;;2.40;;
24233;SDS011;12365;43.554;1.388;2022-08-19T06:16:18;9.43;;;3.25;;
24233;SDS011;12365;43.554;1.388;2022-08-19T06:18:47;6.20;;;2.63;;
24233;SDS011;12365;43.554;1.388;2022-08-19T06:21:24;10.65;;;2.70;;
24233;SDS011;12365;43.554;1.388;2022-08-19T06:23:52;6.43;;;2.55;;
24233;SDS011;12365;43.554;1.388;2022-08-19T06:26:19;9.68;;;2.80;;
24233;SDS011;12365;43.554;1.388;2022-08-19T06:28:46;7.38;;;2.60;;
24233;SDS011;12365;43.554;1.388;2022-08-19T06:31:13;11.85;;;2.90;;
24233;SDS011;12365;43.554;1.388;2022-08-19T06:33:41;8.07;;;2.58;;
24233;SDS011;12365;43.554;1.388;2022-08-19T06:36:07;7.57;;;2.92;;
24233;SDS011;12365;43.554;1.388;2022-08-19T06:38:40;7.18;;;2.60;;
24233;SDS011;12365;43.554;1.388;2022-08-19T06:41:05;11.00;;;2.95;;
24233;SDS011;12365;43.554;1.388;2022-08-19T06:43:31;10.65;;;2.60;;
24233;SDS011;12365;43.554;1.388;2022-08-19T06:45:56;7.68;;;2.60;;
24233;SDS011;12365;43.554;1.388;2022-08-19T06:48:23;7.95;;;2.83;;
24233;SDS011;12365;43.554;1.388;2022-08-19T06:50:49;13.38;;;2.75;;
24233;SDS011;12365;43.554;1.388;2022-08-19T06:53:16;8.05;;;2.40;;
24233;SDS011;12365;43.554;1.388;2022-08-19T06:55:44;6.72;;;2.28;;
24233;SDS011;12365;43.554;1.388;2022-08-19T06:58:10;4.15;;;2.10;;
24233;SDS011;12365;43.554;1.388;2022-08-19T07:00:35;7.07;;;2.45;;
24233;SDS011;12365;43.554;1.388;2022-08-19T07:03:01;8.85;;;2.50;;
24233;SDS011;12365;43.554;1.388;2022-08-19T07:05:27;9.68;;;2.47;;
24233;SDS011;12365;43.554;1.388;2022-08-19T07:07:53;7.30;;;2.35;;
24233;SDS011;12365;43.554;1.388;2022-08-19T07:10:18;8.32;;;2.38;;
24233;SDS011;12365;43.554;1.388;2022-08-19T07:12:44;7.65;;;2.60;;
24233;SDS011;12365;43.554;1.388;2022-08-19T07:15:09;11.25;;;2.55;;
24233;SDS011;12365;43.554;1.388;2022-08-19T07:17:36;10.02;;;2.40;;
24233;SDS011;12365;43.554;1.388;2022-08-19T07:20:04;5.38;;;2.10;;
24233;SDS011;12365;43.554;1.388;2022-08-19T07:22:32;6.40;;;2.35;;
24233;SDS011;12365;43.554;1.388;2022-08-19T07:24:59;8.00;;;2.53;;
24233;SDS011;12365;43.554;1.388;2022-08-19T07:27:24;5.05;;;2.03;;
24233;SDS011;12365;43.554;1.388;2022-08-19T07:29:50;6.05;;;2.40;;
24233;SDS011;12365;43.554;1.388;2022-08-19T07:32:16;6.93;;;2.00;;
24233;SDS011;12365;43.554;1.388;2022-08-19T07:34:41;6.45;;;2.30;;
24233;SDS011;12365;43.554;1.388;2022-08-19T07:37:07;5.72;;;2.20;;
24233;SDS011;12365;43.554;1.388;2022-08-19T07:39:33;9.15;;;2.10;;
24233;SDS011;12365;43.554;1.388;2022-08-19T07:42:02;10.27;;;2.10;;
24233;SDS011;12365;43.554;1.388;2022-08-19T07:46:58;6.75;;;2.10;;
24233;SDS011;12365;43.554;1.388;2022-08-19T07:49:25;5.07;;;1.98;;
24233;SDS011;12365;43.554;1.388;2022-08-19T07:54:30;8.25;;;2.15;;
24233;SDS011;12365;43.554;1.388;2022-08-19T07:56:59;6.78;;;2.50;;
24233;SDS011;12365;43.554;1.388;2022-08-19T07:59:25;5.13;;;2.00;;
24233;SDS011;12365;43.554;1.388;2022-08-19T08:01:53;6.32;;;2.20;;
24233;SDS011;12365;43.554;1.388;2022-08-19T08:04:19;6.18;;;1.90;;
24233;SDS011;12365;43.554;1.388;2022-08-19T08:07:03;4.38;;;1.75;;
24233;SDS011;12365;43.554;1.388;2022-08-19T08:09:49;6.82;;;2.30;;
24233;SDS011;12365;43.554;1.388;2022-08-19T08:12:16;8.45;;;2.00;;
24233;SDS011;12365;43.554;1.388;2022-08-19T08:14:54;4.43;;;1.70;;
24233;SDS011;12365;43.554;1.388;2022-08-19T08:17:23;4.28;;;2.10;;
24233;SDS011;12365;43.554;1.388;2022-08-19T08:19:50;7.43;;;2.33;;
24233;SDS011;12365;43.554;1.388;2022-08-19T08:22:17;7.38;;;2.05;;
24233;SDS011;12365;43.554;1.388;2022-08-19T08:25:11;5.93;;;1.90;;
24233;SDS011;12365;43.554;1.388;2022-08-19T08:27:40;5.68;;;2.17;;
24233;SDS011;12365;43.554;1.388;2022-08-19T08:30:07;7.20;;;2.10;;
24233;SDS011;12365;43.554;1.388;2022-08-19T08:32:35;4.15;;;2.13;;
24233;SDS011;12365;43.554;1.388;2022-08-19T08:35:03;4.43;;;1.95;;
24233;SDS011;12365;43.554;1.388;2022-08-19T08:39:58;4.53;;;1.95;;
24233;SDS011;12365;43.554;1.388;2022-08-19T08:42:31;5.00;;;2.25;;
24233;SDS011;12365;43.554;1.388;2022-08-19T08:45:12;6.68;;;2.08;;
24233;SDS011;12365;43.554;1.388;2022-08-19T08:47:41;4.85;;;2.10;;
24233;SDS011;12365;43.554;1.388;2022-08-19T08:53:09;4.75;;;1.80;;
24233;SDS011;12365;43.554;1.388;2022-08-19T08:55:36;5.00;;;1.77;;
24233;SDS011;12365;43.554;1.388;2022-08-19T08:58:05;6.32;;;2.15;;
24233;SDS011;12365;43.554;1.388;2022-08-19T09:00:40;4.15;;;1.73;;
24233;SDS011;12365;43.554;1.388;2022-08-19T09:03:12;5.07;;;1.88;;
24233;SDS011;12365;43.554;1.388;2022-08-19T09:06:03;5.47;;;2.03;;
24233;SDS011;12365;43.554;1.388;2022-08-19T09:17:07;4.70;;;1.98;;
24233;SDS011;12365;43.554;1.388;2022-08-19T09:19:46;6.38;;;2.05;;
24233;SDS011;12365;43.554;1.388;2022-08-19T09:22:14;4.50;;;1.80;;
24233;SDS011;12365;43.554;1.388;2022-08-19T09:24:40;4.50;;;2.03;;
24233;SDS011;12365;43.554;1.388;2022-08-19T09:27:06;5.53;;;2.05;;
24233;SDS011;12365;43.554;1.388;2022-08-19T09:29:31;5.22;;;1.90;;
24233;SDS011;12365;43.554;1.388;2022-08-19T09:31:56;4.25;;;1.73;;
24233;SDS011;12365;43.554;1.388;2022-08-19T09:34:22;4.30;;;2.00;;
24233;SDS011;12365;43.554;1.388;2022-08-19T09:36:48;7.00;;;1.77;;
24233;SDS011;12365;43.554;1.388;2022-08-19T09:39:17;5.18;;;1.95;;
24233;SDS011;12365;43.554;1.388;2022-08-19T09:41:43;4.93;;;2.00;;
24233;SDS011;12365;43.554;1.388;2022-08-19T09:44:08;4.32;;;2.00;;
24233;SDS011;12365;43.554;1.388;2022-08-19T09:46:36;3.88;;;2.00;;
24233;SDS011;12365;43.554;1.388;2022-08-19T09:49:01;5.80;;;2.13;;
24233;SDS011;12365;43.554;1.388;2022-08-19T09:51:27;7.80;;;2.30;;
24233;SDS011;12365;43.554;1.388;2022-08-19T09:53:54;4.05;;;1.80;;
24233;SDS011;12365;43.554;1.388;2022-08-19T09:56:23;6.40;;;2.40;;
24233;SDS011;12365;43.554;1.388;2022-08-19T09:58:48;6.07;;;1.88;;
24233;SDS011;12365;43.554;1.388;2022-08-19T10:01:18;6.03;;;2.00;;
24233;SDS011;12365;43.554;1.388;2022-08-19T10:03:49;4.35;;;2.13;;
24233;SDS011;12365;43.554;1.388;2022-08-19T10:06:17;5.45;;;1.90;;
24233;SDS011;12365;43.554;1.388;2022-08-19T10:08:43;4.50;;;2.03;;
24233;SDS011;12365;43.554;1.388;2022-08-19T10:11:10;5.28;;;1.80;;
24233;SDS011;12365;43.554;1.388;2022-08-19T10:13:36;6.03;;;2.10;;
24233;SDS011;12365;43.554;1.388;2022-08-19T10:16:05;4.72;;;2.03;;
24233;SDS011;12365;43.554;1.388;2022-08-19T10:18:34;5.80;;;2.15;;
24233;SDS011;12365;43.554;1.388;2022-08-19T10:21:05;4.75;;;1.95;;
24233;SDS011;12365;43.554;1.388;2022-08-19T10:23:33;7.25;;;2.08;;
24233;SDS011;12365;43.554;1.388;2022-08-19T10:26:00;5.35;;;2.05;;
24233;SDS011;12365;43.554;1.388;2022-08-19T10:28:25;5.57;;;2.25;;
24233;SDS011;12365;43.554;1.388;2022-08-19T10:30:51;6.47;;;2.28;;
24233;SDS011;12365;43.554;1.388;2022-08-19T10:33:17;6.43;;;1.90;;
24233;SDS011;12365;43.554;1.388;2022-08-19T10:35:42;5.78;;;2.20;;
24233;SDS011;12365;43.554;1.388;2022-08-19T10:38:11;7.93;;;2.22;;
24233;SDS011;12365;43.554;1.388;2022-08-19T10:40:37;4.68;;;2.05;;
24233;SDS011;12365;43.554;1.388;2022-08-19T10:43:02;5.60;;;2.30;;
24233;SDS011;12365;43.554;1.388;2022-08-19T10:45:28;3.95;;;2.00;;
24233;SDS011;12365;43.554;1.388;2022-08-19T10:47:53;9.05;;;2.15;;
24233;SDS011;12365;43.554;1.388;2022-08-19T10:50:19;4.28;;;1.90;;
24233;SDS011;12365;43.554;1.388;2022-08-19T10:53:03;8.40;;;2.10;;
24233;SDS011;12365;43.554;1.388;2022-08-19T10:55:30;4.30;;;1.90;;
24233;SDS011;12365;43.554;1.388;2022-08-19T10:58:18;5.18;;;2.05;;
24233;SDS011;12365;43.554;1.388;2022-08-19T11:00:55;9.73;;;1.88;;
24233;SDS011;12365;43.554;1.388;2022-08-19T11:03:22;7.03;;;2.13;;
24233;SDS011;12365;43.554;1.388;2022-08-19T11:06:02;4.47;;;2.00;;
24233;SDS011;12365;43.554;1.388;2022-08-19T11:08:30;3.72;;;1.60;;
24233;SDS011;12365;43.554;1.388;2022-08-19T11:10:57;3.90;;;1.92;;
24233;SDS011;12365;43.554;1.388;2022-08-19T11:13:29;5.10;;;2.13;;
24233;SDS011;12365;43.554;1.388;2022-08-19T11:16:06;5.78;;;2.22;;
24233;SDS011;12365;43.554;1.388;2022-08-19T11:18:37;5.15;;;1.83;;
24233;SDS011;12365;43.554;1.388;2022-08-19T11:21:08;4.95;;;2.17;;
24233;SDS011;12365;43.554;1.388;2022-08-19T11:23:37;6.50;;;2.00;;
24233;SDS011;12365;43.554;1.388;2022-08-19T11:26:03;3.47;;;1.70;;
24233;SDS011;12365;43.554;1.388;2022-08-19T11:28:29;4.57;;;2.00;;
24233;SDS011;12365;43.554;1.388;2022-08-19T11:30:54;2.42;;;1.50;;
24233;SDS011;12365;43.554;1.388;2022-08-19T11:33:19;3.70;;;1.80;;
24233;SDS011;12365;43.554;1.388;2022-08-19T11:35:45;5.13;;;1.70;;
24233;SDS011;12365;43.554;1.388;2022-08-19T11:38:10;3.22;;;1.60;;
24233;SDS011;12365;43.554;1.388;2022-08-19T11:40:36;3.95;;;1.67;;
24233;SDS011;12365;43.554;1.388;2022-08-19T11:43:02;2.92;;;1.50;;
24233;SDS011;12365;43.554;1.388;2022-08-19T11:45:28;4.50;;;1.90;;
24233;SDS011;12365;43.554;1.388;2022-08-19T11:47:54;6.78;;;1.90;;
24233;SDS011;12365;43.554;1.388;2022-08-19T11:50:20;4.97;;;1.73;;
24233;SDS011;12365;43.554;1.388;2022-08-19T11:52:46;5.00;;;1.65;;
24233;SDS011;12365;43.554;1.388;2022-08-19T11:55:12;2.60;;;1.50;;
24233;SDS011;12365;43.554;1.388;2022-08-19T11:57:39;6.80;;;1.85;;
24233;SDS011;12365;43.554;1.388;2022-08-19T12:00:06;3.92;;;1.77;;
24233;SDS011;12365;43.554;1.388;2022-08-19T12:02:32;5.53;;;1.90;;
24233;SDS011;12365;43.554;1.388;2022-08-19T12:04:58;9.90;;;1.80;;
24233;SDS011;12365;43.554;1.388;2022-08-19T12:07:28;6.88;;;1.80;;
24233;SDS011;12365;43.554;1.388;2022-08-19T12:09:55;3.17;;;1.58;;
24233;SDS011;12365;43.554;1.388;2022-08-19T12:12:21;4.47;;;1.50;;
24233;SDS011;12365;43.554;1.388;2022-08-19T12:14:46;4.45;;;1.63;;
24233;SDS011;12365;43.554;1.388;2022-08-19T12:17:12;4.22;;;1.52;;
24233;SDS011;12365;43.554;1.388;2022-08-19T12:19:38;5.95;;;1.70;;
24233;SDS011;12365;43.554;1.388;2022-08-19T12:22:04;4.88;;;1.63;;
24233;SDS011;12365;43.554;1.388;2022-08-19T12:24:31;4.40;;;1.60;;
24233;SDS011;12365;43.554;1.388;2022-08-19T12:26:57;2.95;;;1.50;;
24233;SDS011;12365;43.554;1.388;2022-08-19T12:29:26;3.65;;;1.38;;
24233;SDS011;12365;43.554;1.388;2022-08-19T12:31:54;4.35;;;1.80;;
24233;SDS011;12365;43.554;1.388;2022-08-19T12:34:26;7.72;;;1.80;;
24233;SDS011;12365;43.554;1.388;2022-08-19T12:36:55;2.65;;;1.60;;
24233;SDS011;12365;43.554;1.388;2022-08-19T12:39:24;3.72;;;1.40;;
24233;SDS011;12365;43.554;1.388;2022-08-19T12:41:50;2.47;;;1.35;;
24233;SDS011;12365;43.554;1.388;2022-08-19T12:44:16;2.55;;;1.30;;
24233;SDS011;12365;43.554;1.388;2022-08-19T12:46:42;2.75;;;1.20;;
24233;SDS011;12365;43.554;1.388;2022-08-19T12:49:07;3.22;;;1.35;;
24233;SDS011;12365;43.554;1.388;2022-08-19T12:51:32;6.85;;;1.65;;
24233;SDS011;12365;43.554;1.388;2022-08-19T12:53:58;2.78;;;1.40;;
24233;SDS011;12365;43.554;1.388;2022-08-19T12:56:24;5.95;;;1.60;;
24233;SDS011;12365;43.554;1.388;2022-08-19T12:58:49;2.75;;;1.40;;
24233;SDS011;12365;43.554;1.388;2022-08-19T13:01:15;2.85;;;1.33;;
24233;SDS011;12365;43.554;1.388;2022-08-19T13:03:42;2.03;;;1.35;;
24233;SDS011;12365;43.554;1.388;2022-08-19T13:06:10;2.13;;;1.40;;
24233;SDS011;12365;43.554;1.388;2022-08-19T13:08:36;3.83;;;1.70;;
24233;SDS011;12365;43.554;1.388;2022-08-19T13:11:12;4.13;;;1.30;;
24233;SDS011;12365;43.554;1.388;2022-08-19T13:13:40;4.00;;;1.35;;
24233;SDS011;12365;43.554;1.388;2022-08-19T13:16:07;2.72;;;1.30;;
24233;SDS011;12365;43.554;1.388;2022-08-19T13:18:36;2.65;;;1.20;;
24233;SDS011;12365;43.554;1.388;2022-08-19T13:21:05;1.80;;;1.30;;
24233;SDS011;12365;43.554;1.388;2022-08-19T13:23:33;4.00;;;1.30;;
24233;SDS011;12365;43.554;1.388;2022-08-19T13:26:01;4.82;;;1.30;;
24233;SDS011;12365;43.554;1.388;2022-08-19T13:28:28;4.80;;;1.60;;
24233;SDS011;12365;43.554;1.388;2022-08-19T13:31:17;4.60;;;1.50;;
24233;SDS011;12365;43.554;1.388;2022-08-19T13:34:02;10.55;;;1.50;;
24233;SDS011;12365;43.554;1.388;2022-08-19T13:36:29;3.08;;;1.40;;
24233;SDS011;12365;43.554;1.388;2022-08-19T13:38:54;3.53;;;1.30;;
24233;SDS011;12365;43.554;1.388;2022-08-19T13:41:21;3.30;;;1.40;;
24233;SDS011;12365;43.554;1.388;2022-08-19T13:43:46;2.33;;;1.20;;
24233;SDS011;12365;43.554;1.388;2022-08-19T13:46:13;2.92;;;1.33;;
24233;SDS011;12365;43.554;1.388;2022-08-19T13:48:39;2.10;;;1.50;;
24233;SDS011;12365;43.554;1.388;2022-08-19T13:51:05;4.43;;;1.30;;
24233;SDS011;12365;43.554;1.388;2022-08-19T13:53:34;2.38;;;1.40;;
24233;SDS011;12365;43.554;1.388;2022-08-19T13:56:07;2.92;;;1.33;;
24233;SDS011;12365;43.554;1.388;2022-08-19T13:58:33;2.38;;;1.25;;
24233;SDS011;12365;43.554;1.388;2022-08-19T14:00:59;6.72;;;1.70;;
24233;SDS011;12365;43.554;1.388;2022-08-19T14:03:25;3.17;;;1.30;;
24233;SDS011;12365;43.554;1.388;2022-08-19T14:05:50;2.30;;;1.30;;
24233;SDS011;12365;43.554;1.388;2022-08-19T14:08:16;2.05;;;1.30;;
24233;SDS011;12365;43.554;1.388;2022-08-19T14:10:43;3.67;;;1.42;;
24233;SDS011;12365;43.554;1.388;2022-08-19T14:13:09;2.08;;;1.25;;
24233;SDS011;12365;43.554;1.388;2022-08-19T14:15:35;4.47;;;1.30;;
24233;SDS011;12365;43.554;1.388;2022-08-19T14:18:02;2.88;;;1.15;;
24233;SDS011;12365;43.554;1.388;2022-08-19T14:20:28;2.38;;;1.15;;
24233;SDS011;12365;43.554;1.388;2022-08-19T14:22:53;2.25;;;1.20;;
24233;SDS011;12365;43.554;1.388;2022-08-19T14:25:20;8.57;;;1.98;;
24233;SDS011;12365;43.554;1.388;2022-08-19T14:27:49;3.50;;;1.27;;
24233;SDS011;12365;43.554;1.388;2022-08-19T14:30:16;4.03;;;1.33;;
24233;SDS011;12365;43.554;1.388;2022-08-19T14:32:46;4.63;;;1.40;;
24233;SDS011;12365;43.554;1.388;2022-08-19T14:35:12;20.88;;;3.25;;
24233;SDS011;12365;43.554;1.388;2022-08-19T14:37:40;6.53;;;1.58;;
24233;SDS011;12365;43.554;1.388;2022-08-19T14:40:06;2.95;;;1.30;;
24233;SDS011;12365;43.554;1.388;2022-08-19T14:42:33;1.98;;;1.20;;
24233;SDS011;12365;43.554;1.388;2022-08-19T14:44:59;1.88;;;1.17;;
24233;SDS011;12365;43.554;1.388;2022-08-19T14:47:25;2.50;;;1.20;;
24233;SDS011;12365;43.554;1.388;2022-08-19T14:49:51;3.85;;;1.08;;
24233;SDS011;12365;43.554;1.388;2022-08-19T14:52:16;4.93;;;1.40;;
24233;SDS011;12365;43.554;1.388;2022-08-19T14:54:42;2.05;;;1.13;;
24233;SDS011;12365;43.554;1.388;2022-08-19T14:57:10;1.85;;;1.30;;
24233;SDS011;12365;43.554;1.388;2022-08-19T14:59:37;2.63;;;1.35;;
24233;SDS011;12365;43.554;1.388;2022-08-19T15:02:03;2.33;;;1.20;;
24233;SDS011;12365;43.554;1.388;2022-08-19T15:04:28;4.22;;;1.40;;
24233;SDS011;12365;43.554;1.388;2022-08-19T15:06:54;2.33;;;1.23;;
24233;SDS011;12365;43.554;1.388;2022-08-19T15:09:19;2.55;;;1.30;;
24233;SDS011;12365;43.554;1.388;2022-08-19T15:11:44;4.32;;;1.27;;
24233;SDS011;12365;43.554;1.388;2022-08-19T15:14:10;2.50;;;1.30;;